Πλησιέστερες Αναφορές METAR

 

LGTS - Thessaloniki/Makedonia-Elev 7m
Απόσταση από σταθμό: Ν 13km
Ενημερώθηκε: 24/01/2020 04:50
Αίθριος
Αίθριος
 Ανεμοι από μεταβλητός
Ανεμος: μεταβλητός 4 km/h
Θερμοκρασία: 2°C
Σημείο Δρόσου: -1°C
Υγρασία: 81%
Βαρόμετρο: 1032 hPa
Περίληψη: Αίθριος
Ορατότητα: πάνω από 10 km
2020/01/24 02:50 LGTS 240250Z VRB02KT CAVOK 02/M01 Q1032 NOSIG
LGAV - Athens/Elef. Venizelos-Elev 94m
Απόσταση από σταθμό: ΝΝΑ 312km
Ενημερώθηκε: 24/01/2020 04:50
Μερικώς νεφελώδης
Μερικώς νεφελώδης
 Ανεμοι από Β
Ανεμος: Β 11 km/h
Θερμοκρασία: 7°C
Δείκτης Ψύχρας: 5°C
Σημείο Δρόσου: 0°C
Υγρασία: 61%
Βαρόμετρο: 1032 hPa
Νέφωση: Μερικώς νεφελώδης
Ορατότητα: 10 km
Λεπτομέρειες Νεφών: Μερικώς νεφελώδης 914 m
2020/01/24 02:50 LGAV 240250Z 36006KT 9999 SCT030 07/00 Q1032 NOSIG
 
LGAL - Alexandroupolis-Elev 3m
Απόσταση από σταθμό: Α 251km
Ενημερώθηκε: 23/01/2020 21:20
ΜΗ Ενημερωμένο METAR!
Αίθριος
Αίθριος
 Ανεμοι από Β
Ανεμος: Β 15 km/h
Θερμοκρασία: 2°C
Δείκτης Ψύχρας: -2°C
Σημείο Δρόσου: -4°C
Υγρασία: 65%
Βαρόμετρο: 1032 hPa
Περίληψη: Αίθριος
Ορατότητα: πάνω από 10 km
2020/01/23 19:20 LGAL 231920Z 01008KT CAVOK 02/M04 Q1032
LGKV - Kavala/Crysoupolis-Elev 5m
Απόσταση από σταθμό: ΑΒΑ 144km
Ενημερώθηκε: 24/01/2020 04:50
Αίθριος
Αίθριος
 Ανεμοι από ΒΑ
Ανεμος: ΒΑ 11 km/h
Θερμοκρασία: 0°C
Δείκτης Ψύχρας: -4°C
Σημείο Δρόσου: -4°C
Υγρασία: 75%
Βαρόμετρο: 1033 hPa
Περίληψη: Αίθριος
Ορατότητα: πάνω από 10 km
2020/01/24 02:50 LGKV 240250Z 05006KT CAVOK M00/M04 Q1033
 
LGSK - Skiathos Island-Elev 15m
Απόσταση από σταθμό: ΝΝΑ 168km
Ενημερώθηκε: 23/01/2020 14:50
ΜΗ Ενημερωμένο METAR!
Μερικώς νεφελώδης
Μερικώς νεφελώδης
 Ανεμοι από ΑΒΑ
Ανεμος: ΑΒΑ 22 km/h
Θερμοκρασία: 13°C
Σημείο Δρόσου: 3°C
Υγρασία: 51%
Βαρόμετρο: 1028 hPa
Νέφωση: Μερικώς νεφελώδης
Ορατότητα: 10 km
Λεπτομέρειες Νεφών: Μερικώς νεφελώδης 762 m
2020/01/23 12:50 LGSK 231250Z 06012KT 9999 SCT025 13/03 Q1028
LGLM - Limnos Island-Elev 5m
Απόσταση από σταθμό: ΑΝΑ 210km
Ενημερώθηκε: 24/01/2020 04:50
Αίθριος
Αίθριος
 Ανεμοι από άπνοια
Ανεμος: άπνοια
Θερμοκρασία: 1°C
Σημείο Δρόσου: -4°C
Υγρασία: 70%
Βαρόμετρο: 1032 hPa
Περίληψη: Αίθριος
Ορατότητα: πάνω από 10 km
2020/01/24 02:50 LGLM 240250Z 00000KT CAVOK 01/M04 Q1032
 
LGMT - Mitilini Island-Elev 17m
Απόσταση από σταθμό: ΑΝΑ 358km
Ενημερώθηκε: 23/01/2020 22:20
ΜΗ Ενημερωμένο METAR!
Διάσπαρτα Νέφη
Διάσπαρτα Νέφη
 Ανεμοι από ΒΒΑ
Ανεμος: ΒΒΑ 13 km/h
Θερμοκρασία: 7°C
Δείκτης Ψύχρας: 5°C
Σημείο Δρόσου: -1°C
Υγρασία: 57%
Βαρόμετρο: 1031 hPa
Νέφωση: Διάσπαρτα Νέφη
Ορατότητα: 10 km
Λεπτομέρειες Νεφών: Διάσπαρτα Νέφη 610 m
2020/01/23 20:20 LGMT 232020Z 02007KT 320V050 9999 FEW020 07/M01 Q1031
LGSY - Skiros Island-Elev 15m
Απόσταση από σταθμό: ΝΑ 227km
Ενημερώθηκε: 24/01/2020 04:50
Διάσπαρτα Νέφη
Διάσπαρτα Νέφη
 Ανεμοι από Α
Ανεμος: Α 11 km/h
Θερμοκρασία: 8°C
Δείκτης Ψύχρας: 6°C
Σημείο Δρόσου: -1°C
Υγρασία: 53%
Βαρόμετρο: 1032 hPa
Νέφωση: Διάσπαρτα Νέφη
Ορατότητα: 10 km
Λεπτομέρειες Νεφών: Διάσπαρτα Νέφη 610 m
2020/01/24 02:50 LGSY 240250Z 08006KT 9999 FEW020 08/M01 Q1032 BLU
 
LGKZ - Kozani-Elev 628m
Απόσταση από σταθμό: ΔΝΔ 102km
Ενημερώθηκε: 24/01/2020 04:50

 Ανεμοι από Β
Ανεμος: Β 9 km/h
Θερμοκρασία: -3°C
Δείκτης Ψύχρας: -7°C
Σημείο Δρόσου: -10°C
Υγρασία: 59%
Βαρόμετρο: 1031 hPa
2020/01/24 02:50 LGKZ 240250Z AUTO 36005KT //// // ////// M03/M10 Q1031 RE//
LGIO - Ioannina-Elev 476m
Απόσταση από σταθμό: ΔΝΔ 209km
Ενημερώθηκε: 24/01/2020 04:50

 Ανεμοι από μεταβλητός
Ανεμος: μεταβλητός 2 km/h
Θερμοκρασία: -4°C
Σημείο Δρόσου: -8°C
Υγρασία: 74%
Βαρόμετρο: 1030 hPa
2020/01/24 02:50 LGIO 240250Z AUTO VRB01KT //// // ////// M04/M08 Q1030 RE//
 
LGZA - Zakinthos-Elev 3m
Απόσταση από σταθμό: ΝΝΔ 367km
Ενημερώθηκε: 23/01/2020 19:50
ΜΗ Ενημερωμένο METAR!
Διάσπαρτα Νέφη
Διάσπαρτα Νέφη
 Ανεμοι από μεταβλητός
Ανεμος: μεταβλητός 2 km/h
Θερμοκρασία: 9°C
Σημείο Δρόσου: 8°C
Υγρασία: 94%
Βαρόμετρο: 1026 hPa
Νέφωση: Διάσπαρτα Νέφη
Ορατότητα: 10 km
Λεπτομέρειες Νεφών: Διάσπαρτα Νέφη 610 m
2020/01/23 17:50 LGZA 231750Z VRB01KT 9999 FEW020 09/08 Q1026
LGKR - Corfu Island-Elev 2m
Απόσταση από σταθμό: ΔΝΔ 282km
Ενημερώθηκε: 24/01/2020 04:50
Διάσπαρτα Νέφη
Διάσπαρτα Νέφη
 Ανεμοι από άπνοια
Ανεμος: άπνοια
Θερμοκρασία: 4°C
Σημείο Δρόσου: 3°C
Υγρασία: 93%
Βαρόμετρο: 1028 hPa
Νέφωση: Διάσπαρτα Νέφη
Ορατότητα: 10 km
Λεπτομέρειες Νεφών: Διάσπαρτα Νέφη 457 m
2020/01/24 02:50 LGKR 240250Z 00000KT 9999 FEW015 04/03 Q1028 NOSIG
 
LGSO - Syros Island-Elev 72m
Απόσταση από σταθμό: ΝΝΑ 397km
Ενημερώθηκε: 24/01/2020 04:50
Ασθενής βροχή
Ασθενής βροχή
 Ανεμοι από ΒΑ
Ανεμος: ΒΑ 28 km/h
Θερμοκρασία: 8°C
Δείκτης Ψύχρας: 4°C
Σημείο Δρόσου: -1°C
Υγρασία: 53%
Βαρόμετρο: 1031 hPa
Περίληψη: Ασθενής βροχή
2020/01/24 02:50 LGSO 240250Z AUTO 05015KT //// -RA ////// 08/M01 Q1031 RE//
LGMK - Mikonos Island-Elev 123m
Απόσταση από σταθμό: ΝΝΑ 412km
Ενημερώθηκε: 23/01/2020 19:50
ΜΗ Ενημερωμένο METAR!
Διάσπαρτα Νέφη
Διάσπαρτα Νέφη
 Ανεμοι από Β
Ανεμος: Β 35 km/h, Ριπή: 56 km/h
Θερμοκρασία: 10°C
Δείκτης Ψύχρας: 6°C
Σημείο Δρόσου: 5°C
Υγρασία: 71%
Βαρόμετρο: 1026 hPa
Νέφωση: Διάσπαρτα Νέφη
Ορατότητα: 10 km
Λεπτομέρειες Νεφών: Διάσπαρτα Νέφη 457 m
2020/01/23 17:50 LGMK 231750Z 01019G30KT 9999 FEW015 10/05 Q1026
 
LGSR - Santorini Island-Elev 40m
Απόσταση από σταθμό: ΝΝΑ 520km
Ενημερώθηκε: 23/01/2020 21:50
ΜΗ Ενημερωμένο METAR!
Μερικώς νεφελώδης
Μερικώς νεφελώδης
 Ανεμοι από ΒΒΑ
Ανεμος: ΒΒΑ 41 km/h
Θερμοκρασία: 13°C
Σημείο Δρόσου: 4°C
Υγρασία: 55%
Βαρόμετρο: 1027 hPa
Νέφωση: Μερικώς νεφελώδης
Ορατότητα: 10 km
Λεπτομέρειες Νεφών: Μερικώς νεφελώδης 762 m
2020/01/23 19:50 LGSR 231950Z 02022KT 9999 SCT025 13/04 Q1027
LGKL - Kalamata-Elev 8m
Απόσταση από σταθμό: Ν 405km
Ενημερώθηκε: 24/01/2020 04:50

 Ανεμοι από ΒΒΔ
Ανεμος: ΒΒΔ 11 km/h
Θερμοκρασία: 8°C
Δείκτης Ψύχρας: 6°C
Σημείο Δρόσου: 0°C
Υγρασία: 57%
Βαρόμετρο: 1030 hPa
2020/01/24 02:50 LGKL 240250Z AUTO 34006KT 310V010 //// // ////// 08/00 Q1030 RE//
 
LGIR - Iraklion/Crete-Elev 5m
Απόσταση από σταθμό: ΝΝΑ 622km
Ενημερώθηκε: 24/01/2020 04:50
Διάσπαρτα Νέφη
Διάσπαρτα Νέφη
 Ανεμοι από Β
Ανεμος: Β 28 km/h
Θερμοκρασία: 11°C
Σημείο Δρόσου: 2°C
Υγρασία: 54%
Βαρόμετρο: 1029 hPa
Νέφωση: Διάσπαρτα Νέφη
Ορατότητα: 10 km
Λεπτομέρειες Νεφών: Διάσπαρτα Νέφη 762 m
2020/01/24 02:50 LGIR 240250Z 35015KT 9999 FEW025 11/02 Q1029 NOSIG
LGRP - Rhodes-Elev 5m
Απόσταση από σταθμό: ΝΑ 649km
Ενημερώθηκε: 24/01/2020 04:50
Διάσπαρτα Νέφη
Διάσπαρτα Νέφη
 Ανεμοι από Β
Ανεμος: Β 24 km/h
Θερμοκρασία: 9°C
Δείκτης Ψύχρας: 6°C
Σημείο Δρόσου: -6°C
Υγρασία: 34%
Βαρόμετρο: 1025 hPa
Νέφωση: Διάσπαρτα Νέφη
Ορατότητα: 10 km
Λεπτομέρειες Νεφών: Διάσπαρτα Νέφη 549 m
2020/01/24 02:50 LGRP 240250Z 36013KT 9999 FEW018 09/M06 Q1025 NOSIG
 
LWOH - Ohrid/FYROM-Elev 761m
Απόσταση από σταθμό: ΔΒΔ 188km
Ενημερώθηκε: 23/01/2020 22:00
ΜΗ Ενημερωμένο METAR!
Διάσπαρτα Νέφη
Διάσπαρτα Νέφη
 Ανεμοι από ΒΒΔ
Ανεμος: ΒΒΔ 22 km/h
Θερμοκρασία: 1°C
Δείκτης Ψύχρας: -4°C
Σημείο Δρόσου: -10°C
Υγρασία: 44%
Βαρόμετρο: 1029 hPa
Νέφωση: Διάσπαρτα Νέφη
Ορατότητα: 10 km
Λεπτομέρειες Νεφών: Διάσπαρτα Νέφη 1219 m
2020/01/23 20:00 LWOH 232000Z 34012KT 9999 FEW040 01/M10 Q1029
LBSF - Sofia/Bulgaria-Elev 595m
Απόσταση από σταθμό: Β 227km
Ενημερώθηκε: 24/01/2020 05:00
Μερικώς νεφελώδης
Μερικώς νεφελώδης
 Ανεμοι από ΝΝΑ
Ανεμος: ΝΝΑ 4 km/h
Θερμοκρασία: -10°C
Σημείο Δρόσου: -11°C
Υγρασία: 92%
Βαρόμετρο: 1032 hPa
Νέφωση: Μερικώς νεφελώδης
Ορατότητα: 6 km
2020/01/24 03:00 LBSF 240300Z 15002KT 6000 NSC M10/M11 Q1032 TEMPO 4000 BR